Terminal Aerodrome Forecast
Issued by NWS Atlanta, GA

Home | Current Version | Previous Version | Text Only | Print | Product List | Glossary On
Versions: 1 2 3 4 5 6 7 8 9 10 11 12 13 14
000
FTUS42 KFFC 280500
TAFCSG
TAF
KCSG 280523Z 2806/2906 26006KT P6SM FEW060 SCT120
     FM281400 26010G15KT P6SM SCT040 BKN060
     FM281700 27012G20KT P6SM VCSH BKN050 PROB30 2818/2822 5SM -TSRA
      BKN035CB
     FM282300 30010G18KT P6SM VCSH SCT050 BKN080
     FM290300 32008KT P6SM SCT100=

USA.gov is the U.S. government's official web portal to all federal, state and local government web resources and services.